createdAt,value
2023-05-02T00:00:55.353Z,17.95
2023-05-02T00:03:22.170Z,17.96
2023-05-02T00:05:49.189Z,17.95
2023-05-02T00:08:16.460Z,17.95
2023-05-02T00:10:43.542Z,17.94
2023-05-02T00:13:10.397Z,17.84
2023-05-02T00:15:37.409Z,17.86
2023-05-02T00:18:04.179Z,17.82
2023-05-02T00:20:31.241Z,17.78
2023-05-02T00:22:58.129Z,17.73
2023-05-02T00:25:25.243Z,17.74
2023-05-02T00:27:52.883Z,17.68
2023-05-02T00:30:21.171Z,17.65
2023-05-02T00:32:48.040Z,17.66
2023-05-02T00:35:15.116Z,17.58
2023-05-02T00:37:41.846Z,17.58
2023-05-02T00:40:09.383Z,17.58
2023-05-02T00:42:36.645Z,17.60
2023-05-02T00:45:06.522Z,17.62
2023-05-02T00:47:33.608Z,17.58
2023-05-02T00:50:01.540Z,17.58
2023-05-02T00:52:28.778Z,17.56
2023-05-02T00:54:55.840Z,17.57
2023-05-02T00:57:23.018Z,17.58
2023-05-02T00:59:50.166Z,17.61
2023-05-02T01:02:26.131Z,17.59
2023-05-02T01:05:10.461Z,17.60
2023-05-02T01:07:46.507Z,17.59
2023-05-02T01:10:42.261Z,17.57
2023-05-02T01:13:23.197Z,17.53
2023-05-02T01:15:51.821Z,17.49
2023-05-02T01:18:21.318Z,17.47
2023-05-02T01:20:48.522Z,17.48
2023-05-02T01:23:46.366Z,17.49
2023-05-02T01:26:34.377Z,17.47
2023-05-02T01:29:02.333Z,17.45
2023-05-02T01:31:37.202Z,17.40
2023-05-02T01:34:05.511Z,17.40
2023-05-02T01:36:32.715Z,17.39
2023-05-02T01:39:00.532Z,17.39
2023-05-02T01:41:28.684Z,17.35
2023-05-02T01:43:57.310Z,17.29
2023-05-02T01:46:26.608Z,17.29
2023-05-02T01:48:53.390Z,17.30
2023-05-02T01:51:20.436Z,17.27
2023-05-02T01:53:48.141Z,17.28
2023-05-02T01:56:16.938Z,17.24
2023-05-02T01:58:43.601Z,17.24
2023-05-02T02:01:10.826Z,17.22
2023-05-02T02:03:37.692Z,17.19
2023-05-02T02:06:04.955Z,17.18
2023-05-02T02:08:31.824Z,17.11
2023-05-02T02:11:00.673Z,17.17
2023-05-02T02:13:32.365Z,17.17
2023-05-02T02:16:01.191Z,17.10
2023-05-02T02:18:28.064Z,17.09
2023-05-02T02:20:55.164Z,17.10
2023-05-02T02:23:23.174Z,17.09
2023-05-02T02:25:50.671Z,17.09
2023-05-02T02:28:17.431Z,17.08
2023-05-02T02:30:44.532Z,17.04
2023-05-02T02:33:11.281Z,17.03
2023-05-02T02:35:40.950Z,16.99
2023-05-02T02:38:27.136Z,16.95
2023-05-02T02:41:05.913Z,16.86
2023-05-02T02:43:54.157Z,16.88
2023-05-02T02:46:39.776Z,16.81
2023-05-02T02:49:18.890Z,16.82
2023-05-02T02:51:50.438Z,16.80
2023-05-02T02:54:36.273Z,16.84
2023-05-02T02:57:14.140Z,16.76
2023-05-02T02:59:44.402Z,16.72
2023-05-02T03:02:12.995Z,16.82
2023-05-02T03:04:42.167Z,16.84
2023-05-02T03:07:09.288Z,16.80
2023-05-02T03:09:45.856Z,16.86
2023-05-02T03:12:12.970Z,16.84
2023-05-02T03:14:39.920Z,16.79
2023-05-02T03:17:08.526Z,16.77
2023-05-02T03:19:35.842Z,16.76
2023-05-02T03:22:03.688Z,16.76
2023-05-02T03:24:30.585Z,16.78
2023-05-02T03:26:59.091Z,16.75
2023-05-02T03:29:26.225Z,16.74
2023-05-02T03:31:53.321Z,16.73
2023-05-02T03:34:22.005Z,16.71
2023-05-02T03:36:49.241Z,16.66
2023-05-02T03:39:15.973Z,16.66
2023-05-02T03:41:43.957Z,16.67
2023-05-02T03:44:10.924Z,16.66
2023-05-02T03:46:38.215Z,16.67
2023-05-02T03:49:04.970Z,16.62
2023-05-02T03:51:33.882Z,16.64
2023-05-02T03:54:02.598Z,16.62
2023-05-02T03:56:29.714Z,16.60
2023-05-02T03:58:56.463Z,16.59
2023-05-02T04:01:23.700Z,16.59
2023-05-02T04:03:51.955Z,16.58
2023-05-02T04:06:19.060Z,16.56
2023-05-02T04:08:45.797Z,16.57
2023-05-02T04:11:12.878Z,16.54
2023-05-02T04:13:39.673Z,16.46
2023-05-02T04:16:06.979Z,16.48
2023-05-02T04:18:33.787Z,16.49
2023-05-02T04:21:00.762Z,16.52
2023-05-02T04:23:27.467Z,16.50
2023-05-02T04:25:55.024Z,16.50
2023-05-02T04:28:22.287Z,16.51
2023-05-02T04:30:49.841Z,16.52
2023-05-02T04:33:18.493Z,16.50
2023-05-02T04:35:45.561Z,16.51
2023-05-02T04:38:12.293Z,16.53
2023-05-02T04:40:39.344Z,16.54
2023-05-02T04:43:06.168Z,16.53
2023-05-02T04:45:35.792Z,16.56
2023-05-02T04:48:03.657Z,16.57
2023-05-02T04:50:32.163Z,16.58
2023-05-02T04:52:59.515Z,16.53
2023-05-02T04:55:26.273Z,16.55
2023-05-02T04:57:53.380Z,16.57
2023-05-02T05:00:20.273Z,16.62
2023-05-02T05:02:47.611Z,16.63
2023-05-02T05:05:14.558Z,16.58
2023-05-02T05:07:41.605Z,16.60
2023-05-02T05:10:11.289Z,16.65
2023-05-02T05:12:38.349Z,16.61
2023-05-02T05:15:05.482Z,16.63
2023-05-02T05:17:32.779Z,16.67
2023-05-02T05:19:59.790Z,16.72
2023-05-02T05:22:27.034Z,16.73
2023-05-02T05:24:54.127Z,16.86
2023-05-02T05:27:21.547Z,16.76
2023-05-02T05:29:48.482Z,16.80
2023-05-02T05:32:15.719Z,16.87
2023-05-02T05:34:42.609Z,16.91
2023-05-02T05:37:09.734Z,16.93
2023-05-02T05:39:36.617Z,17.02
2023-05-02T05:42:03.760Z,17.04
2023-05-02T05:44:31.679Z,17.10
2023-05-02T05:46:58.856Z,17.16
2023-05-02T05:49:25.721Z,17.22
2023-05-02T05:51:52.801Z,17.22
2023-05-02T05:54:19.584Z,17.28
2023-05-02T05:56:47.016Z,17.30
2023-05-02T05:59:13.796Z,17.36
2023-05-02T06:01:40.945Z,17.41
2023-05-02T06:04:07.955Z,17.48
2023-05-02T06:06:35.259Z,17.53
2023-05-02T06:09:02.282Z,17.62
2023-05-02T06:11:29.369Z,17.68
2023-05-02T06:13:56.152Z,17.72
2023-05-02T06:16:23.320Z,17.83
2023-05-02T06:18:50.793Z,17.89
2023-05-02T06:21:17.799Z,17.92
2023-05-02T06:23:44.555Z,17.96
2023-05-02T06:26:11.607Z,18.03
2023-05-02T06:28:38.375Z,18.09
2023-05-02T06:31:05.987Z,18.15
2023-05-02T06:33:33.446Z,18.15
2023-05-02T06:36:02.006Z,18.21
2023-05-02T06:38:29.197Z,18.29
2023-05-02T06:40:56.416Z,18.32
2023-05-02T06:43:23.219Z,18.35
2023-05-02T06:45:53.189Z,18.42
2023-05-02T06:48:20.025Z,18.50
2023-05-02T06:50:47.694Z,18.59
2023-05-02T06:53:14.469Z,18.64
2023-05-02T06:55:41.459Z,18.63
2023-05-02T06:58:08.375Z,18.68
2023-05-02T07:00:35.479Z,18.75
2023-05-02T07:03:02.367Z,18.79
2023-05-02T07:05:29.816Z,18.81
2023-05-02T07:07:56.522Z,18.87
2023-05-02T07:10:23.965Z,18.98
2023-05-02T07:12:50.724Z,19.06
2023-05-02T07:15:18.036Z,19.09
2023-05-02T07:17:44.848Z,19.12
2023-05-02T07:20:12.305Z,19.13
2023-05-02T07:22:39.103Z,19.18
2023-05-02T07:25:06.560Z,19.26
2023-05-02T07:27:33.308Z,19.32
2023-05-02T07:30:00.590Z,19.39
2023-05-02T07:32:28.089Z,19.45
2023-05-02T07:34:56.316Z,19.55
2023-05-02T07:37:23.172Z,19.63
2023-05-02T07:39:50.273Z,19.70
2023-05-02T07:42:16.997Z,19.72
2023-05-02T07:44:44.135Z,19.86
2023-05-02T07:47:10.939Z,19.91
2023-05-02T07:49:38.007Z,20.00
2023-05-02T07:52:04.964Z,20.06
2023-05-02T07:54:32.096Z,20.17
2023-05-02T07:57:02.382Z,20.26
2023-05-02T07:59:32.307Z,20.33
2023-05-02T08:01:59.160Z,20.33
2023-05-02T08:04:26.502Z,20.41
2023-05-02T08:06:53.529Z,20.47
2023-05-02T08:09:20.637Z,20.62
2023-05-02T08:11:47.489Z,20.75
2023-05-02T08:14:16.062Z,20.78
2023-05-02T08:16:44.755Z,20.83
2023-05-02T08:19:13.247Z,20.84
2023-05-02T08:21:39.988Z,20.96
2023-05-02T08:24:07.112Z,21.04
2023-05-02T08:26:34.031Z,21.06
2023-05-02T08:29:01.325Z,21.23
2023-05-02T08:31:28.296Z,21.29
2023-05-02T08:33:55.502Z,21.30
2023-05-02T08:36:22.375Z,21.40
2023-05-02T08:38:49.599Z,21.49
2023-05-02T08:41:17.887Z,21.55
2023-05-02T08:43:48.096Z,21.60
2023-05-02T08:46:16.664Z,21.68
2023-05-02T08:48:46.015Z,21.78
2023-05-02T08:51:14.437Z,21.84
2023-05-02T08:53:41.910Z,21.85
2023-05-02T08:56:09.470Z,21.95
2023-05-02T08:58:40.330Z,22.05
2023-05-02T09:01:17.346Z,22.16
2023-05-02T09:03:47.086Z,22.23
2023-05-02T09:06:18.899Z,22.31
2023-05-02T09:08:49.420Z,22.38
2023-05-02T09:11:18.180Z,22.48
2023-05-02T09:13:52.784Z,22.55
2023-05-02T09:16:23.869Z,22.56
2023-05-02T09:18:52.884Z,22.67
2023-05-02T09:21:22.687Z,22.72
2023-05-02T09:23:50.798Z,22.81
2023-05-02T09:26:27.865Z,22.84
2023-05-02T09:28:56.662Z,22.94
2023-05-02T09:31:49.588Z,23.05
2023-05-02T09:34:18.292Z,23.14
2023-05-02T09:36:46.871Z,23.26
2023-05-02T09:39:15.576Z,23.37
2023-05-02T09:41:43.164Z,23.45
2023-05-02T09:44:14.338Z,23.54
2023-05-02T09:46:42.900Z,23.62
2023-05-02T09:49:10.355Z,23.73
2023-05-02T09:51:37.628Z,23.71
2023-05-02T09:54:04.903Z,23.71
2023-05-02T09:56:31.750Z,23.69
2023-05-02T09:59:17.341Z,23.81
2023-05-02T10:01:44.162Z,23.97
2023-05-02T10:04:18.886Z,23.84
2023-05-02T10:06:46.210Z,23.93
2023-05-02T10:09:16.638Z,24.00
2023-05-02T10:11:48.380Z,24.05
2023-05-02T10:14:15.558Z,24.08
2023-05-02T10:16:48.167Z,24.13
2023-05-02T10:19:17.999Z,24.19
2023-05-02T10:21:44.889Z,24.25
2023-05-02T10:24:13.231Z,24.33
2023-05-02T10:26:40.024Z,24.35
2023-05-02T10:29:08.335Z,24.37
2023-05-02T10:31:35.247Z,24.40
2023-05-02T10:34:02.363Z,24.40
2023-05-02T10:36:29.314Z,24.44
2023-05-02T10:38:56.560Z,24.45
2023-05-02T10:41:26.480Z,24.48
2023-05-02T10:43:53.771Z,24.51
2023-05-02T10:46:34.377Z,24.53
2023-05-02T10:49:08.936Z,24.55
2023-05-02T10:51:36.868Z,24.58
2023-05-02T10:54:19.379Z,24.61
2023-05-02T10:57:03.659Z,24.65
2023-05-02T10:59:40.605Z,24.66
2023-05-02T11:02:31.047Z,24.63
2023-05-02T11:05:07.694Z,24.68
2023-05-02T11:07:35.689Z,24.68
2023-05-02T11:10:18.322Z,24.71
2023-05-02T11:12:51.680Z,24.74
2023-05-02T11:15:33.626Z,24.76
2023-05-02T11:18:09.500Z,24.73
2023-05-02T11:20:39.543Z,24.72
2023-05-02T11:23:15.617Z,24.75
2023-05-02T11:25:43.651Z,24.77
2023-05-02T11:28:39.529Z,24.80
2023-05-02T11:31:27.451Z,24.80
2023-05-02T11:34:03.717Z,24.80
2023-05-02T11:36:32.268Z,24.79
2023-05-02T11:39:00.194Z,24.81
2023-05-02T11:41:40.093Z,24.79
2023-05-02T11:44:07.352Z,24.80
2023-05-02T11:46:37.094Z,24.79
2023-05-02T11:49:05.094Z,24.78
2023-05-02T11:51:33.451Z,24.75
2023-05-02T11:54:00.234Z,24.72
2023-05-02T11:56:27.547Z,24.71
2023-05-02T11:59:03.957Z,24.69
2023-05-02T12:01:31.411Z,24.68
2023-05-02T12:04:05.135Z,24.65
2023-05-02T12:06:32.325Z,24.61
2023-05-02T12:09:14.457Z,24.53
2023-05-02T12:11:41.545Z,24.48
2023-05-02T12:14:08.589Z,24.42
2023-05-02T12:16:36.032Z,24.39
2023-05-02T12:19:04.311Z,24.35
2023-05-02T12:21:33.151Z,24.30
2023-05-02T12:24:01.034Z,24.22
2023-05-02T12:26:33.133Z,24.19
2023-05-02T12:29:00.964Z,24.11
2023-05-02T12:31:31.290Z,24.02
2023-05-02T12:34:00.438Z,24.02
2023-05-02T12:36:30.816Z,23.97
2023-05-02T12:38:59.882Z,23.92
2023-05-02T12:41:37.507Z,23.84
2023-05-02T12:44:04.973Z,23.82
2023-05-02T12:46:32.665Z,23.62
2023-05-02T12:49:08.221Z,23.62
2023-05-02T12:51:36.626Z,23.52
2023-05-02T12:54:03.961Z,23.53
2023-05-02T12:56:38.397Z,23.52
2023-05-02T12:59:05.782Z,23.43
2023-05-02T13:01:33.923Z,23.44
2023-05-02T13:04:00.882Z,23.37
2023-05-02T13:06:28.007Z,23.38
2023-05-02T13:08:54.751Z,23.36
2023-05-02T13:11:21.941Z,23.33
2023-05-02T13:13:48.706Z,23.31
2023-05-02T13:16:15.875Z,23.27
2023-05-02T13:18:43.582Z,23.29
2023-05-02T13:21:12.499Z,23.33
2023-05-02T13:23:39.961Z,23.29
2023-05-02T13:26:07.004Z,23.26
2023-05-02T13:28:35.755Z,23.21
2023-05-02T13:31:02.985Z,23.21
2023-05-02T13:33:29.825Z,23.25
2023-05-02T13:35:56.892Z,23.25
2023-05-02T13:38:23.673Z,23.24
2023-05-02T13:40:50.795Z,23.25
2023-05-02T13:43:17.505Z,23.24
2023-05-02T13:45:44.871Z,23.21
2023-05-02T13:48:11.699Z,23.20
2023-05-02T13:50:39.199Z,23.25
2023-05-02T13:53:06.241Z,23.24
2023-05-02T13:55:33.416Z,23.21
2023-05-02T13:58:00.315Z,23.21
2023-05-02T14:00:29.225Z,23.20
2023-05-02T14:02:56.178Z,23.21
2023-05-02T14:05:23.357Z,23.19
2023-05-02T14:07:50.852Z,23.18
2023-05-02T14:10:18.067Z,23.13
2023-05-02T14:12:44.837Z,23.11
2023-05-02T14:15:12.564Z,23.11
2023-05-02T14:17:39.403Z,23.12
2023-05-02T14:20:07.995Z,23.10
2023-05-02T14:22:34.865Z,23.08
2023-05-02T14:25:01.960Z,23.03
2023-05-02T14:27:28.802Z,22.98
2023-05-02T14:29:55.983Z,22.89
2023-05-02T14:32:22.954Z,22.85
2023-05-02T14:34:49.990Z,22.84
2023-05-02T14:37:16.698Z,22.85
2023-05-02T14:39:46.632Z,22.79
2023-05-02T14:42:14.833Z,22.75
2023-05-02T14:44:42.277Z,22.71
2023-05-02T14:47:09.305Z,22.71
2023-05-02T14:49:36.769Z,22.71
2023-05-02T14:52:03.691Z,22.73
2023-05-02T14:54:31.011Z,22.74
2023-05-02T14:56:58.064Z,22.75
2023-05-02T14:59:27.932Z,22.71
2023-05-02T15:01:54.866Z,22.65
2023-05-02T15:04:22.424Z,22.60
2023-05-02T15:06:49.568Z,22.57
2023-05-02T15:09:16.690Z,22.50
2023-05-02T15:11:44.773Z,22.45
2023-05-02T15:14:12.136Z,22.35
2023-05-02T15:16:39.789Z,22.31
2023-05-02T15:19:07.453Z,22.32
2023-05-02T15:21:35.198Z,22.27
2023-05-02T15:24:02.730Z,22.24
2023-05-02T15:26:30.248Z,22.21
2023-05-02T15:28:57.361Z,22.19
2023-05-02T15:31:24.454Z,22.15
2023-05-02T15:33:51.715Z,22.13
2023-05-02T15:36:18.580Z,22.06
2023-05-02T15:38:45.638Z,22.03
2023-05-02T15:41:12.389Z,21.99
2023-05-02T15:43:39.586Z,21.91
2023-05-02T15:46:06.552Z,21.89
2023-05-02T15:48:34.797Z,21.79
2023-05-02T15:51:02.720Z,21.70
2023-05-02T15:53:29.920Z,21.65
2023-05-02T15:55:56.783Z,21.63
2023-05-02T15:58:23.949Z,21.61
2023-05-02T16:00:52.525Z,21.55
2023-05-02T16:03:19.901Z,21.55
2023-05-02T16:05:46.840Z,21.53
2023-05-02T16:08:13.945Z,21.50
2023-05-02T16:10:43.255Z,21.47
2023-05-02T16:13:10.538Z,21.45
2023-05-02T16:15:38.085Z,21.40
2023-05-02T16:18:05.302Z,21.35
2023-05-02T16:20:36.472Z,21.35
2023-05-02T16:23:04.145Z,21.32
2023-05-02T16:25:31.121Z,21.26
2023-05-02T16:27:58.230Z,21.19
2023-05-02T16:30:25.155Z,21.12
2023-05-02T16:32:52.886Z,21.07
2023-05-02T16:35:20.059Z,21.08
2023-05-02T16:37:48.200Z,21.06
2023-05-02T16:40:15.104Z,21.07
2023-05-02T16:42:42.325Z,21.04
2023-05-02T16:45:09.370Z,21.05
2023-05-02T16:47:36.760Z,21.05
2023-05-02T16:50:03.819Z,21.04
2023-05-02T16:52:31.503Z,21.00
2023-05-02T16:54:59.096Z,20.98
2023-05-02T16:57:27.265Z,20.94
2023-05-02T16:59:54.082Z,20.90
2023-05-02T17:02:22.231Z,20.86
2023-05-02T17:04:49.986Z,20.80
2023-05-02T17:07:17.352Z,20.81
2023-05-02T17:09:44.615Z,20.81
2023-05-02T17:12:11.986Z,20.79
2023-05-02T17:14:41.146Z,20.75
2023-05-02T17:17:08.599Z,20.73
2023-05-02T17:19:36.023Z,20.67
2023-05-02T17:22:05.314Z,20.68
2023-05-02T17:24:32.608Z,20.64
2023-05-02T17:27:00.157Z,20.64
2023-05-02T17:29:27.530Z,20.64
2023-05-02T17:31:57.325Z,20.63
2023-05-02T17:34:28.481Z,20.57
2023-05-02T17:36:56.052Z,20.54
2023-05-02T17:39:23.339Z,20.54
2023-05-02T17:41:51.118Z,20.52
2023-05-02T17:44:18.572Z,20.47
2023-05-02T17:46:45.589Z,20.42
2023-05-02T17:49:15.330Z,20.40
2023-05-02T17:51:42.695Z,20.35
2023-05-02T17:54:09.862Z,20.36
2023-05-02T17:56:37.511Z,20.32
2023-05-02T17:59:05.099Z,20.33
2023-05-02T18:01:32.172Z,20.30
2023-05-02T18:04:00.113Z,20.23
2023-05-02T18:06:28.341Z,20.23
2023-05-02T18:08:55.699Z,20.18
2023-05-02T18:11:24.254Z,20.13
2023-05-02T18:13:52.768Z,20.11
2023-05-02T18:16:19.758Z,20.08
2023-05-02T18:18:47.052Z,20.07
2023-05-02T18:21:22.586Z,20.08
2023-05-02T18:23:49.733Z,19.97
2023-05-02T18:26:16.586Z,19.98
2023-05-02T18:28:46.646Z,19.94
2023-05-02T18:31:17.631Z,19.93
2023-05-02T18:33:46.559Z,19.92
2023-05-02T18:36:14.522Z,19.89
2023-05-02T18:38:42.370Z,19.87
2023-05-02T18:41:09.457Z,19.85
2023-05-02T18:43:36.735Z,19.82
2023-05-02T18:46:03.632Z,19.74
2023-05-02T18:48:31.476Z,19.74
2023-05-02T18:50:58.379Z,19.66
2023-05-02T18:53:26.484Z,19.67
2023-05-02T18:55:57.418Z,19.63
2023-05-02T18:58:24.516Z,19.56
2023-05-02T19:00:51.340Z,19.54
2023-05-02T19:03:19.063Z,19.47
2023-05-02T19:05:46.120Z,19.48
2023-05-02T19:08:13.246Z,19.39
2023-05-02T19:10:40.889Z,19.39
2023-05-02T19:13:08.056Z,19.39
2023-05-02T19:15:34.976Z,19.35
2023-05-02T19:18:02.967Z,19.33
2023-05-02T19:20:30.478Z,19.32
2023-05-02T19:23:10.984Z,19.27
2023-05-02T19:25:45.596Z,19.28
2023-05-02T19:28:17.292Z,19.20
2023-05-02T19:30:44.609Z,19.19
2023-05-02T19:33:11.979Z,19.23
2023-05-02T19:35:39.437Z,19.17
2023-05-02T19:38:06.718Z,19.15
2023-05-02T19:40:33.593Z,19.15
2023-05-02T19:43:02.061Z,19.17
2023-05-02T19:45:30.439Z,19.08
2023-05-02T19:47:59.202Z,19.10
2023-05-02T19:50:26.425Z,19.08
2023-05-02T19:52:54.115Z,18.97
2023-05-02T19:55:21.644Z,18.89
2023-05-02T19:57:48.891Z,18.93
2023-05-02T20:00:16.095Z,18.96
2023-05-02T20:02:43.462Z,18.95
2023-05-02T20:05:10.492Z,18.83
2023-05-02T20:07:39.123Z,18.87
2023-05-02T20:10:07.942Z,18.78
2023-05-02T20:12:35.140Z,18.71
2023-05-02T20:15:04.215Z,18.69
2023-05-02T20:17:31.561Z,18.69
2023-05-02T20:19:58.548Z,18.63
2023-05-02T20:22:25.657Z,18.64
2023-05-02T20:24:52.480Z,18.60
2023-05-02T20:27:19.703Z,18.58
2023-05-02T20:29:47.382Z,18.47
2023-05-02T20:32:14.560Z,18.48
2023-05-02T20:34:41.602Z,18.41
2023-05-02T20:37:10.282Z,18.43
2023-05-02T20:39:37.781Z,18.42
2023-05-02T20:42:05.811Z,18.39
2023-05-02T20:44:33.617Z,18.40
2023-05-02T20:47:01.377Z,18.31
2023-05-02T20:49:32.375Z,18.29
2023-05-02T20:52:04.084Z,18.29
2023-05-02T20:54:31.546Z,18.28
2023-05-02T20:56:58.639Z,18.27
2023-05-02T20:59:25.752Z,18.23
2023-05-02T21:01:52.871Z,18.17
2023-05-02T21:04:19.809Z,18.22
2023-05-02T21:06:47.189Z,18.26
2023-05-02T21:09:14.244Z,18.16
2023-05-02T21:11:41.915Z,18.10
2023-05-02T21:14:08.813Z,18.10
2023-05-02T21:16:36.721Z,18.16
2023-05-02T21:19:03.656Z,18.09
2023-05-02T21:21:30.881Z,18.10
2023-05-02T21:23:58.676Z,18.06
2023-05-02T21:26:26.322Z,18.07
2023-05-02T21:28:53.169Z,18.02
2023-05-02T21:31:20.310Z,18.01
2023-05-02T21:33:47.055Z,18.02
2023-05-02T21:36:14.259Z,18.07
2023-05-02T21:38:41.033Z,17.94
2023-05-02T21:41:08.879Z,17.92
2023-05-02T21:43:38.367Z,17.90
2023-05-02T21:46:05.494Z,17.89
2023-05-02T21:48:33.331Z,17.89
2023-05-02T21:51:00.334Z,17.81
2023-05-02T21:53:27.222Z,17.92
2023-05-02T21:55:54.757Z,17.82
2023-05-02T21:58:21.518Z,17.79
2023-05-02T22:00:48.613Z,17.80
2023-05-02T22:03:15.521Z,17.75
2023-05-02T22:05:42.592Z,17.79
2023-05-02T22:08:09.984Z,17.74
2023-05-02T22:10:38.666Z,17.75
2023-05-02T22:13:06.524Z,17.73
2023-05-02T22:15:33.591Z,17.72
2023-05-02T22:18:01.674Z,17.72
2023-05-02T22:20:28.929Z,17.66
2023-05-02T22:22:55.672Z,17.63
2023-05-02T22:25:22.712Z,17.61
2023-05-02T22:27:49.451Z,17.66
2023-05-02T22:30:16.636Z,17.66
2023-05-02T22:32:43.367Z,17.68
2023-05-02T22:35:10.844Z,17.62
2023-05-02T22:37:37.614Z,17.57
2023-05-02T22:40:07.469Z,17.61
2023-05-02T22:42:34.214Z,17.57
2023-05-02T22:45:01.545Z,17.50
2023-05-02T22:47:29.231Z,17.54
2023-05-02T22:49:59.692Z,17.49
2023-05-02T22:52:27.462Z,17.53
2023-05-02T22:54:54.617Z,17.52
2023-05-02T22:57:21.304Z,17.51
2023-05-02T22:59:49.418Z,17.41
2023-05-02T23:02:16.117Z,17.41
2023-05-02T23:04:43.234Z,17.40
2023-05-02T23:07:10.257Z,17.42
2023-05-02T23:09:37.264Z,17.38
2023-05-02T23:12:04.270Z,17.34
2023-05-02T23:14:31.356Z,17.36
2023-05-02T23:16:58.425Z,17.40
2023-05-02T23:19:25.919Z,17.35
2023-05-02T23:21:52.659Z,17.30
2023-05-02T23:24:19.697Z,17.32
2023-05-02T23:26:46.410Z,17.34
2023-05-02T23:29:13.590Z,17.31
2023-05-02T23:31:40.531Z,17.27
2023-05-02T23:34:07.551Z,17.23
2023-05-02T23:36:34.640Z,17.24
2023-05-02T23:39:05.515Z,17.22
2023-05-02T23:41:32.312Z,17.20
2023-05-02T23:43:59.407Z,17.17
2023-05-02T23:46:27.229Z,17.17
2023-05-02T23:48:54.309Z,17.17
2023-05-02T23:51:21.061Z,17.12
2023-05-02T23:53:48.090Z,17.12
2023-05-02T23:56:14.804Z,17.08
2023-05-02T23:58:41.818Z,17.06
